sensor_id;sensor_type;location;lat;lon;timestamp;temperature;humidity
52159;DHT22;38145;53.182;6.284;2022-09-29T00:01:35;7.00;99.90
52159;DHT22;38145;53.182;6.284;2022-09-29T00:04:02;6.90;99.90
52159;DHT22;38145;53.182;6.284;2022-09-29T00:06:28;6.90;99.90
52159;DHT22;38145;53.182;6.284;2022-09-29T00:08:56;7.10;99.90
52159;DHT22;38145;53.182;6.284;2022-09-29T00:11:24;6.80;99.90
52159;DHT22;38145;53.182;6.284;2022-09-29T00:13:55;6.80;99.90
52159;DHT22;38145;53.182;6.284;2022-09-29T00:16:22;7.00;99.90
52159;DHT22;38145;53.182;6.284;2022-09-29T00:18:48;6.80;99.90
52159;DHT22;38145;53.182;6.284;2022-09-29T00:21:17;6.90;99.90
52159;DHT22;38145;53.182;6.284;2022-09-29T00:23:45;7.00;99.90
52159;DHT22;38145;53.182;6.284;2022-09-29T00:26:14;6.90;99.90
52159;DHT22;38145;53.182;6.284;2022-09-29T00:28:46;6.90;99.90
52159;DHT22;38145;53.182;6.284;2022-09-29T00:31:13;6.70;99.90
52159;DHT22;38145;53.182;6.284;2022-09-29T00:33:39;6.80;99.90
52159;DHT22;38145;53.182;6.284;2022-09-29T00:36:09;6.90;99.90
52159;DHT22;38145;53.182;6.284;2022-09-29T00:38:37;6.70;99.90
52159;DHT22;38145;53.182;6.284;2022-09-29T00:41:09;6.80;99.90
52159;DHT22;38145;53.182;6.284;2022-09-29T00:46:39;6.90;99.90
52159;DHT22;38145;53.182;6.284;2022-09-29T00:49:23;6.70;99.90
52159;DHT22;38145;53.182;6.284;2022-09-29T00:51:58;6.60;99.90
52159;DHT22;38145;53.182;6.284;2022-09-29T00:54:29;6.70;99.90
52159;DHT22;38145;53.182;6.284;2022-09-29T00:56:57;6.70;99.90
52159;DHT22;38145;53.182;6.284;2022-09-29T00:59:46;6.50;99.90
52159;DHT22;38145;53.182;6.284;2022-09-29T01:02:16;6.40;99.90
52159;DHT22;38145;53.182;6.284;2022-09-29T01:04:46;6.30;99.90
52159;DHT22;38145;53.182;6.284;2022-09-29T01:07:13;6.50;99.90
52159;DHT22;38145;53.182;6.284;2022-09-29T01:09:42;6.50;99.90
52159;DHT22;38145;53.182;6.284;2022-09-29T01:12:09;6.30;99.90
52159;DHT22;38145;53.182;6.284;2022-09-29T01:14:36;6.30;99.90
52159;DHT22;38145;53.182;6.284;2022-09-29T01:17:05;6.40;99.90
52159;DHT22;38145;53.182;6.284;2022-09-29T01:19:48;6.30;99.90
52159;DHT22;38145;53.182;6.284;2022-09-29T01:22:59;6.50;99.90
52159;DHT22;38145;53.182;6.284;2022-09-29T01:31:43;6.40;99.90
52159;DHT22;38145;53.182;6.284;2022-09-29T01:39:37;6.30;99.90
52159;DHT22;38145;53.182;6.284;2022-09-29T01:42:16;6.40;99.90
52159;DHT22;38145;53.182;6.284;2022-09-29T01:44:46;6.50;99.90
52159;DHT22;38145;53.182;6.284;2022-09-29T01:47:30;6.40;99.90
52159;DHT22;38145;53.182;6.284;2022-09-29T01:50:03;6.40;99.90
52159;DHT22;38145;53.182;6.284;2022-09-29T01:52:36;6.10;99.90
52159;DHT22;38145;53.182;6.284;2022-09-29T01:55:08;6.10;99.90
52159;DHT22;38145;53.182;6.284;2022-09-29T01:57:56;5.90;99.90
52159;DHT22;38145;53.182;6.284;2022-09-29T02:00:24;5.80;99.90
52159;DHT22;38145;53.182;6.284;2022-09-29T02:02:57;6.00;99.90
52159;DHT22;38145;53.182;6.284;2022-09-29T02:05:32;5.90;99.90
52159;DHT22;38145;53.182;6.284;2022-09-29T02:08:10;6.10;99.90
52159;DHT22;38145;53.182;6.284;2022-09-29T02:10:48;6.00;99.90
52159;DHT22;38145;53.182;6.284;2022-09-29T02:13:17;5.90;99.90
52159;DHT22;38145;53.182;6.284;2022-09-29T02:15:47;5.80;99.90
52159;DHT22;38145;53.182;6.284;2022-09-29T02:18:21;5.80;99.90
52159;DHT22;38145;53.182;6.284;2022-09-29T02:20:49;6.00;99.90
52159;DHT22;38145;53.182;6.284;2022-09-29T02:23:16;5.90;99.90
52159;DHT22;38145;53.182;6.284;2022-09-29T02:25:43;6.00;99.90
52159;DHT22;38145;53.182;6.284;2022-09-29T02:28:13;5.90;99.90
52159;DHT22;38145;53.182;6.284;2022-09-29T02:30:40;6.00;99.90
52159;DHT22;38145;53.182;6.284;2022-09-29T02:33:24;5.70;99.90
52159;DHT22;38145;53.182;6.284;2022-09-29T02:38:54;5.90;99.90
52159;DHT22;38145;53.182;6.284;2022-09-29T02:41:28;5.90;99.90
52159;DHT22;38145;53.182;6.284;2022-09-29T02:46:41;5.80;99.90
52159;DHT22;38145;53.182;6.284;2022-09-29T02:49:19;5.80;99.90
52159;DHT22;38145;53.182;6.284;2022-09-29T02:51:56;5.90;99.90
52159;DHT22;38145;53.182;6.284;2022-09-29T02:54:38;5.60;99.90
52159;DHT22;38145;53.182;6.284;2022-09-29T02:57:25;5.50;99.90
52159;DHT22;38145;53.182;6.284;2022-09-29T02:59:56;5.50;99.90
52159;DHT22;38145;53.182;6.284;2022-09-29T03:02:26;5.80;99.90
52159;DHT22;38145;53.182;6.284;2022-09-29T03:04:53;5.60;99.90
52159;DHT22;38145;53.182;6.284;2022-09-29T03:07:20;5.70;99.90
52159;DHT22;38145;53.182;6.284;2022-09-29T03:09:47;5.70;99.90
52159;DHT22;38145;53.182;6.284;2022-09-29T03:12:15;5.60;99.90
52159;DHT22;38145;53.182;6.284;2022-09-29T03:14:44;5.50;99.90
52159;DHT22;38145;53.182;6.284;2022-09-29T03:17:11;5.50;99.90
52159;DHT22;38145;53.182;6.284;2022-09-29T03:19:38;5.60;99.90
52159;DHT22;38145;53.182;6.284;2022-09-29T03:22:05;5.50;99.90
52159;DHT22;38145;53.182;6.284;2022-09-29T03:24:33;5.60;99.90
52159;DHT22;38145;53.182;6.284;2022-09-29T03:26:59;5.30;99.90
52159;DHT22;38145;53.182;6.284;2022-09-29T03:29:26;5.40;99.90
52159;DHT22;38145;53.182;6.284;2022-09-29T03:31:52;5.30;99.90
52159;DHT22;38145;53.182;6.284;2022-09-29T03:34:19;5.50;99.90
52159;DHT22;38145;53.182;6.284;2022-09-29T03:36:45;5.20;99.90
52159;DHT22;38145;53.182;6.284;2022-09-29T03:39:12;5.10;99.90
52159;DHT22;38145;53.182;6.284;2022-09-29T03:41:38;5.40;99.90
52159;DHT22;38145;53.182;6.284;2022-09-29T03:44:05;5.10;99.90
52159;DHT22;38145;53.182;6.284;2022-09-29T03:46:31;5.00;99.90
52159;DHT22;38145;53.182;6.284;2022-09-29T03:48:58;5.10;99.90
52159;DHT22;38145;53.182;6.284;2022-09-29T03:51:24;5.10;99.90
52159;DHT22;38145;53.182;6.284;2022-09-29T03:53:55;5.10;99.90
52159;DHT22;38145;53.182;6.284;2022-09-29T03:56:25;5.10;99.90
52159;DHT22;38145;53.182;6.284;2022-09-29T03:58:52;5.10;99.90
52159;DHT22;38145;53.182;6.284;2022-09-29T04:01:18;5.10;99.90
52159;DHT22;38145;53.182;6.284;2022-09-29T04:03:46;5.10;99.90
52159;DHT22;38145;53.182;6.284;2022-09-29T04:06:12;5.00;99.90
52159;DHT22;38145;53.182;6.284;2022-09-29T04:08:39;4.90;99.90
52159;DHT22;38145;53.182;6.284;2022-09-29T04:11:06;4.90;99.90
52159;DHT22;38145;53.182;6.284;2022-09-29T04:13:32;4.90;99.90
52159;DHT22;38145;53.182;6.284;2022-09-29T04:16:00;5.00;99.90
52159;DHT22;38145;53.182;6.284;2022-09-29T04:18:27;5.00;99.90
52159;DHT22;38145;53.182;6.284;2022-09-29T04:20:54;4.80;99.90
52159;DHT22;38145;53.182;6.284;2022-09-29T04:23:27;4.70;99.90
52159;DHT22;38145;53.182;6.284;2022-09-29T04:25:58;4.70;99.90
52159;DHT22;38145;53.182;6.284;2022-09-29T04:28:26;4.90;99.90
52159;DHT22;38145;53.182;6.284;2022-09-29T04:30:52;4.70;99.90
52159;DHT22;38145;53.182;6.284;2022-09-29T04:33:19;4.90;99.90
52159;DHT22;38145;53.182;6.284;2022-09-29T04:35:46;4.70;99.90
52159;DHT22;38145;53.182;6.284;2022-09-29T04:38:12;4.90;99.90
52159;DHT22;38145;53.182;6.284;2022-09-29T04:40:39;4.90;99.90
52159;DHT22;38145;53.182;6.284;2022-09-29T04:43:05;5.00;99.90
52159;DHT22;38145;53.182;6.284;2022-09-29T04:45:31;4.70;99.90
52159;DHT22;38145;53.182;6.284;2022-09-29T04:47:58;5.00;99.90
52159;DHT22;38145;53.182;6.284;2022-09-29T04:50:25;4.70;99.90
52159;DHT22;38145;53.182;6.284;2022-09-29T04:52:51;5.00;99.90
52159;DHT22;38145;53.182;6.284;2022-09-29T04:55:17;4.90;99.90
52159;DHT22;38145;53.182;6.284;2022-09-29T04:57:44;5.00;99.90
52159;DHT22;38145;53.182;6.284;2022-09-29T05:00:12;4.70;99.90
52159;DHT22;38145;53.182;6.284;2022-09-29T05:02:38;4.70;99.90
52159;DHT22;38145;53.182;6.284;2022-09-29T05:05:05;4.90;99.90
52159;DHT22;38145;53.182;6.284;2022-09-29T05:07:34;5.00;99.90
52159;DHT22;38145;53.182;6.284;2022-09-29T05:10:01;4.80;99.90
52159;DHT22;38145;53.182;6.284;2022-09-29T05:12:27;4.90;99.90
52159;DHT22;38145;53.182;6.284;2022-09-29T05:14:55;4.90;99.90
52159;DHT22;38145;53.182;6.284;2022-09-29T05:17:21;4.80;99.90
52159;DHT22;38145;53.182;6.284;2022-09-29T05:19:47;4.70;99.90
52159;DHT22;38145;53.182;6.284;2022-09-29T05:22:14;4.90;99.90
52159;DHT22;38145;53.182;6.284;2022-09-29T05:24:41;4.70;99.90
52159;DHT22;38145;53.182;6.284;2022-09-29T05:27:09;4.70;99.90
52159;DHT22;38145;53.182;6.284;2022-09-29T05:29:35;4.90;99.90
52159;DHT22;38145;53.182;6.284;2022-09-29T05:32:01;5.00;99.90
52159;DHT22;38145;53.182;6.284;2022-09-29T05:34:28;4.60;99.90
52159;DHT22;38145;53.182;6.284;2022-09-29T05:36:54;4.80;99.90
52159;DHT22;38145;53.182;6.284;2022-09-29T05:39:21;4.90;99.90
52159;DHT22;38145;53.182;6.284;2022-09-29T05:41:48;4.90;99.90
52159;DHT22;38145;53.182;6.284;2022-09-29T05:44:14;4.70;99.90
52159;DHT22;38145;53.182;6.284;2022-09-29T05:46:41;4.60;99.90
52159;DHT22;38145;53.182;6.284;2022-09-29T05:49:08;4.80;99.90
52159;DHT22;38145;53.182;6.284;2022-09-29T05:51:35;4.60;99.90
52159;DHT22;38145;53.182;6.284;2022-09-29T05:54:02;4.80;99.90
52159;DHT22;38145;53.182;6.284;2022-09-29T05:56:28;4.90;99.90
52159;DHT22;38145;53.182;6.284;2022-09-29T05:58:54;4.60;99.90
52159;DHT22;38145;53.182;6.284;2022-09-29T06:01:23;4.60;99.90
52159;DHT22;38145;53.182;6.284;2022-09-29T06:03:54;4.90;99.90
52159;DHT22;38145;53.182;6.284;2022-09-29T06:06:23;4.60;99.90
52159;DHT22;38145;53.182;6.284;2022-09-29T06:08:50;4.70;99.90
52159;DHT22;38145;53.182;6.284;2022-09-29T06:11:19;4.90;99.90
52159;DHT22;38145;53.182;6.284;2022-09-29T06:13:48;4.90;99.90
52159;DHT22;38145;53.182;6.284;2022-09-29T06:16:16;4.90;99.90
52159;DHT22;38145;53.182;6.284;2022-09-29T06:18:43;4.90;99.90
52159;DHT22;38145;53.182;6.284;2022-09-29T06:21:12;4.80;99.90
52159;DHT22;38145;53.182;6.284;2022-09-29T06:23:39;4.70;99.90
52159;DHT22;38145;53.182;6.284;2022-09-29T06:26:08;4.80;99.90
52159;DHT22;38145;53.182;6.284;2022-09-29T06:28:35;4.80;99.90
52159;DHT22;38145;53.182;6.284;2022-09-29T06:31:04;5.20;99.90
52159;DHT22;38145;53.182;6.284;2022-09-29T06:33:33;5.10;99.90
52159;DHT22;38145;53.182;6.284;2022-09-29T06:36:00;5.10;99.90
52159;DHT22;38145;53.182;6.284;2022-09-29T06:38:47;4.90;99.90
52159;DHT22;38145;53.182;6.284;2022-09-29T06:41:13;5.10;99.90
52159;DHT22;38145;53.182;6.284;2022-09-29T06:43:39;5.00;99.90
52159;DHT22;38145;53.182;6.284;2022-09-29T06:46:06;5.30;99.90
52159;DHT22;38145;53.182;6.284;2022-09-29T06:48:32;5.00;99.90
52159;DHT22;38145;53.182;6.284;2022-09-29T06:50:58;5.30;99.90
52159;DHT22;38145;53.182;6.284;2022-09-29T06:53:25;5.10;99.90
52159;DHT22;38145;53.182;6.284;2022-09-29T06:55:53;5.10;99.90
52159;DHT22;38145;53.182;6.284;2022-09-29T06:58:21;5.20;99.90
52159;DHT22;38145;53.182;6.284;2022-09-29T07:00:47;5.20;99.90
52159;DHT22;38145;53.182;6.284;2022-09-29T07:03:14;5.30;99.90
52159;DHT22;38145;53.182;6.284;2022-09-29T07:05:40;5.60;99.90
52159;DHT22;38145;53.182;6.284;2022-09-29T07:08:07;5.30;99.90
52159;DHT22;38145;53.182;6.284;2022-09-29T07:10:33;5.30;99.90
52159;DHT22;38145;53.182;6.284;2022-09-29T07:13:00;5.70;99.90
52159;DHT22;38145;53.182;6.284;2022-09-29T07:15:26;5.80;99.90
52159;DHT22;38145;53.182;6.284;2022-09-29T07:17:57;5.90;99.90
52159;DHT22;38145;53.182;6.284;2022-09-29T07:20:25;5.90;99.90
52159;DHT22;38145;53.182;6.284;2022-09-29T07:22:52;6.00;99.90
52159;DHT22;38145;53.182;6.284;2022-09-29T07:25:18;6.20;99.90
52159;DHT22;38145;53.182;6.284;2022-09-29T07:27:45;5.90;99.90
52159;DHT22;38145;53.182;6.284;2022-09-29T07:30:12;6.10;99.90
52159;DHT22;38145;53.182;6.284;2022-09-29T07:32:39;6.30;99.90
52159;DHT22;38145;53.182;6.284;2022-09-29T07:35:06;6.40;99.90
52159;DHT22;38145;53.182;6.284;2022-09-29T07:37:32;6.90;99.90
52159;DHT22;38145;53.182;6.284;2022-09-29T07:39:59;7.00;99.90
52159;DHT22;38145;53.182;6.284;2022-09-29T07:42:28;7.10;99.90
52159;DHT22;38145;53.182;6.284;2022-09-29T07:44:55;7.10;99.90
52159;DHT22;38145;53.182;6.284;2022-09-29T07:47:21;7.00;99.90
52159;DHT22;38145;53.182;6.284;2022-09-29T07:49:48;7.70;99.90
52159;DHT22;38145;53.182;6.284;2022-09-29T07:52:15;7.40;99.90
52159;DHT22;38145;53.182;6.284;2022-09-29T07:54:41;8.00;99.90
52159;DHT22;38145;53.182;6.284;2022-09-29T07:57:08;8.20;99.90
52159;DHT22;38145;53.182;6.284;2022-09-29T07:59:34;8.00;99.90
52159;DHT22;38145;53.182;6.284;2022-09-29T08:02:00;8.40;99.90
52159;DHT22;38145;53.182;6.284;2022-09-29T08:04:27;8.90;99.90
52159;DHT22;38145;53.182;6.284;2022-09-29T08:06:54;9.30;99.90
52159;DHT22;38145;53.182;6.284;2022-09-29T08:09:20;9.40;99.90
52159;DHT22;38145;53.182;6.284;2022-09-29T08:11:47;9.60;99.90
52159;DHT22;38145;53.182;6.284;2022-09-29T08:14:13;9.50;99.90
52159;DHT22;38145;53.182;6.284;2022-09-29T08:16:39;9.60;99.90
52159;DHT22;38145;53.182;6.284;2022-09-29T08:19:06;9.60;99.90
52159;DHT22;38145;53.182;6.284;2022-09-29T08:21:34;9.40;99.90
52159;DHT22;38145;53.182;6.284;2022-09-29T08:24:03;9.30;99.90
52159;DHT22;38145;53.182;6.284;2022-09-29T08:26:31;9.60;99.90
52159;DHT22;38145;53.182;6.284;2022-09-29T08:29:01;9.40;99.90
52159;DHT22;38145;53.182;6.284;2022-09-29T08:31:28;9.50;99.90
52159;DHT22;38145;53.182;6.284;2022-09-29T08:33:56;10.00;99.90
52159;DHT22;38145;53.182;6.284;2022-09-29T08:36:24;10.30;99.90
52159;DHT22;38145;53.182;6.284;2022-09-29T08:38:53;10.50;99.90
52159;DHT22;38145;53.182;6.284;2022-09-29T08:44:02;12.00;99.90
52159;DHT22;38145;53.182;6.284;2022-09-29T08:46:34;12.50;99.90
52159;DHT22;38145;53.182;6.284;2022-09-29T08:49:20;13.10;99.90
52159;DHT22;38145;53.182;6.284;2022-09-29T08:51:51;13.40;99.90
52159;DHT22;38145;53.182;6.284;2022-09-29T08:54:23;13.70;99.90
52159;DHT22;38145;53.182;6.284;2022-09-29T08:56:51;14.00;99.90
52159;DHT22;38145;53.182;6.284;2022-09-29T08:59:17;14.10;99.90
52159;DHT22;38145;53.182;6.284;2022-09-29T09:02:04;14.30;99.90
52159;DHT22;38145;53.182;6.284;2022-09-29T09:07:55;14.50;99.90
52159;DHT22;38145;53.182;6.284;2022-09-29T09:10:39;14.70;99.90
52159;DHT22;38145;53.182;6.284;2022-09-29T09:13:14;14.80;99.90
52159;DHT22;38145;53.182;6.284;2022-09-29T09:15:53;14.90;99.90
52159;DHT22;38145;53.182;6.284;2022-09-29T09:18:47;14.90;99.90
52159;DHT22;38145;53.182;6.284;2022-09-29T09:21:18;15.00;99.90
52159;DHT22;38145;53.182;6.284;2022-09-29T09:24:03;15.10;99.90
52159;DHT22;38145;53.182;6.284;2022-09-29T09:26:32;15.00;99.90
52159;DHT22;38145;53.182;6.284;2022-09-29T09:29:04;15.10;99.90
52159;DHT22;38145;53.182;6.284;2022-09-29T09:31:41;15.30;99.90
52159;DHT22;38145;53.182;6.284;2022-09-29T09:34:16;15.40;99.90
52159;DHT22;38145;53.182;6.284;2022-09-29T09:36:52;15.50;99.90
52159;DHT22;38145;53.182;6.284;2022-09-29T09:39:28;15.70;99.90
52159;DHT22;38145;53.182;6.284;2022-09-29T09:41:57;15.70;99.90
52159;DHT22;38145;53.182;6.284;2022-09-29T09:44:34;15.70;99.90
52159;DHT22;38145;53.182;6.284;2022-09-29T09:47:05;15.80;99.90
52159;DHT22;38145;53.182;6.284;2022-09-29T09:49:46;15.80;99.90
52159;DHT22;38145;53.182;6.284;2022-09-29T09:52:26;15.90;99.90
52159;DHT22;38145;53.182;6.284;2022-09-29T09:54:55;15.90;99.90
52159;DHT22;38145;53.182;6.284;2022-09-29T09:57:38;16.00;99.90
52159;DHT22;38145;53.182;6.284;2022-09-29T10:00:19;16.10;99.90
52159;DHT22;38145;53.182;6.284;2022-09-29T10:02:51;16.20;99.90
52159;DHT22;38145;53.182;6.284;2022-09-29T10:05:21;16.10;99.90
52159;DHT22;38145;53.182;6.284;2022-09-29T10:07:49;16.30;99.90
52159;DHT22;38145;53.182;6.284;2022-09-29T10:10:20;16.30;99.90
52159;DHT22;38145;53.182;6.284;2022-09-29T10:13:02;16.20;99.90
52159;DHT22;38145;53.182;6.284;2022-09-29T10:15:32;16.30;99.90
52159;DHT22;38145;53.182;6.284;2022-09-29T10:18:09;16.30;99.90
52159;DHT22;38145;53.182;6.284;2022-09-29T10:20:37;16.20;99.90
52159;DHT22;38145;53.182;6.284;2022-09-29T10:23:24;16.40;99.90
52159;DHT22;38145;53.182;6.284;2022-09-29T10:25:56;16.50;99.90
52159;DHT22;38145;53.182;6.284;2022-09-29T10:28:25;16.50;99.90
52159;DHT22;38145;53.182;6.284;2022-09-29T10:30:54;16.50;99.90
52159;DHT22;38145;53.182;6.284;2022-09-29T10:33:22;16.40;99.90
52159;DHT22;38145;53.182;6.284;2022-09-29T10:36:06;16.50;99.90
52159;DHT22;38145;53.182;6.284;2022-09-29T10:38:33;16.60;99.90
52159;DHT22;38145;53.182;6.284;2022-09-29T10:41:05;16.70;99.90
52159;DHT22;38145;53.182;6.284;2022-09-29T10:43:37;16.80;99.90
52159;DHT22;38145;53.182;6.284;2022-09-29T10:46:31;16.70;99.90
52159;DHT22;38145;53.182;6.284;2022-09-29T10:51:34;16.60;99.90
52159;DHT22;38145;53.182;6.284;2022-09-29T10:54:07;16.60;99.90
52159;DHT22;38145;53.182;6.284;2022-09-29T10:56:34;16.60;99.90
52159;DHT22;38145;53.182;6.284;2022-09-29T10:59:02;16.60;99.90
52159;DHT22;38145;53.182;6.284;2022-09-29T11:01:31;16.60;99.90
52159;DHT22;38145;53.182;6.284;2022-09-29T11:04:03;16.70;99.90
52159;DHT22;38145;53.182;6.284;2022-09-29T11:06:34;16.40;99.90
52159;DHT22;38145;53.182;6.284;2022-09-29T11:09:04;16.20;99.90
52159;DHT22;38145;53.182;6.284;2022-09-29T11:11:34;16.20;99.90
52159;DHT22;38145;53.182;6.284;2022-09-29T11:14:02;16.10;99.90
52159;DHT22;38145;53.182;6.284;2022-09-29T11:16:32;16.20;99.90
52159;DHT22;38145;53.182;6.284;2022-09-29T11:19:08;16.30;99.90
52159;DHT22;38145;53.182;6.284;2022-09-29T11:24:26;16.50;99.90
52159;DHT22;38145;53.182;6.284;2022-09-29T11:30:10;15.90;99.90
52159;DHT22;38145;53.182;6.284;2022-09-29T11:35:34;15.90;99.90
52159;DHT22;38145;53.182;6.284;2022-09-29T11:38:12;16.00;99.90
52159;DHT22;38145;53.182;6.284;2022-09-29T11:43:43;16.30;99.90
52159;DHT22;38145;53.182;6.284;2022-09-29T11:49:21;16.50;99.90
52159;DHT22;38145;53.182;6.284;2022-09-29T11:52:26;16.50;99.90
52159;DHT22;38145;53.182;6.284;2022-09-29T11:57:50;16.80;99.90
52159;DHT22;38145;53.182;6.284;2022-09-29T12:00:34;16.70;99.90
52159;DHT22;38145;53.182;6.284;2022-09-29T12:06:07;16.30;99.90
52159;DHT22;38145;53.182;6.284;2022-09-29T12:11:35;16.30;99.90
52159;DHT22;38145;53.182;6.284;2022-09-29T12:14:19;16.40;99.90
52159;DHT22;38145;53.182;6.284;2022-09-29T12:17:08;16.40;99.90
52159;DHT22;38145;53.182;6.284;2022-09-29T12:19:38;16.20;99.90
52159;DHT22;38145;53.182;6.284;2022-09-29T12:22:09;15.90;99.90
52159;DHT22;38145;53.182;6.284;2022-09-29T12:24:43;15.80;99.90
52159;DHT22;38145;53.182;6.284;2022-09-29T12:27:18;15.50;99.90
52159;DHT22;38145;53.182;6.284;2022-09-29T12:29:52;15.40;99.90
52159;DHT22;38145;53.182;6.284;2022-09-29T12:32:25;15.30;99.90
52159;DHT22;38145;53.182;6.284;2022-09-29T12:35:04;15.10;99.90
52159;DHT22;38145;53.182;6.284;2022-09-29T12:37:43;15.10;99.90
52159;DHT22;38145;53.182;6.284;2022-09-29T12:40:25;15.00;99.90
52159;DHT22;38145;53.182;6.284;2022-09-29T12:43:20;15.00;99.90
52159;DHT22;38145;53.182;6.284;2022-09-29T12:46:02;15.00;99.90
52159;DHT22;38145;53.182;6.284;2022-09-29T12:48:37;15.00;99.90
52159;DHT22;38145;53.182;6.284;2022-09-29T12:51:28;14.90;99.90
52159;DHT22;38145;53.182;6.284;2022-09-29T12:54:05;14.80;99.90
52159;DHT22;38145;53.182;6.284;2022-09-29T13:01:41;14.50;99.90
52159;DHT22;38145;53.182;6.284;2022-09-29T13:07:04;14.30;99.90
52159;DHT22;38145;53.182;6.284;2022-09-29T13:14:41;13.90;99.90
52159;DHT22;38145;53.182;6.284;2022-09-29T13:17:31;14.00;99.90
52159;DHT22;38145;53.182;6.284;2022-09-29T13:28:33;14.00;99.90
52159;DHT22;38145;53.182;6.284;2022-09-29T13:31:06;14.00;99.90
52159;DHT22;38145;53.182;6.284;2022-09-29T13:33:33;14.10;99.90
52159;DHT22;38145;53.182;6.284;2022-09-29T13:36:00;14.20;99.90
52159;DHT22;38145;53.182;6.284;2022-09-29T13:38:28;14.40;99.90
52159;DHT22;38145;53.182;6.284;2022-09-29T13:46:38;14.90;99.90
52159;DHT22;38145;53.182;6.284;2022-09-29T13:49:31;15.00;99.90
52159;DHT22;38145;53.182;6.284;2022-09-29T13:51:59;14.90;99.90
52159;DHT22;38145;53.182;6.284;2022-09-29T13:54:30;14.80;99.90
52159;DHT22;38145;53.182;6.284;2022-09-29T13:59:27;14.60;99.90
52159;DHT22;38145;53.182;6.284;2022-09-29T14:01:54;14.50;99.90
52159;DHT22;38145;53.182;6.284;2022-09-29T14:04:41;14.40;99.90
52159;DHT22;38145;53.182;6.284;2022-09-29T14:07:12;14.30;99.90
52159;DHT22;38145;53.182;6.284;2022-09-29T14:09:43;14.20;99.90
52159;DHT22;38145;53.182;6.284;2022-09-29T14:12:22;14.20;99.90
52159;DHT22;38145;53.182;6.284;2022-09-29T14:14:58;14.10;99.90
52159;DHT22;38145;53.182;6.284;2022-09-29T14:17:30;14.10;99.90
52159;DHT22;38145;53.182;6.284;2022-09-29T14:20:15;14.10;99.90
52159;DHT22;38145;53.182;6.284;2022-09-29T14:30:46;14.20;99.90
52159;DHT22;38145;53.182;6.284;2022-09-29T14:33:26;14.30;99.90
52159;DHT22;38145;53.182;6.284;2022-09-29T14:36:04;14.30;99.90
52159;DHT22;38145;53.182;6.284;2022-09-29T14:38:40;14.30;99.90
52159;DHT22;38145;53.182;6.284;2022-09-29T14:43:39;14.30;99.90
52159;DHT22;38145;53.182;6.284;2022-09-29T14:46:26;14.30;99.90
52159;DHT22;38145;53.182;6.284;2022-09-29T15:00:16;14.10;99.90
52159;DHT22;38145;53.182;6.284;2022-09-29T15:02:49;14.10;99.90
52159;DHT22;38145;53.182;6.284;2022-09-29T15:05:27;14.10;99.90
52159;DHT22;38145;53.182;6.284;2022-09-29T15:07:54;14.10;99.90
52159;DHT22;38145;53.182;6.284;2022-09-29T15:10:25;14.20;99.90
52159;DHT22;38145;53.182;6.284;2022-09-29T15:12:52;14.10;99.90
52159;DHT22;38145;53.182;6.284;2022-09-29T15:15:29;14.00;99.90
52159;DHT22;38145;53.182;6.284;2022-09-29T15:18:07;13.90;99.90
52159;DHT22;38145;53.182;6.284;2022-09-29T15:26:17;13.80;99.90
52159;DHT22;38145;53.182;6.284;2022-09-29T15:28:44;13.70;99.90
52159;DHT22;38145;53.182;6.284;2022-09-29T15:31:17;13.70;99.90
52159;DHT22;38145;53.182;6.284;2022-09-29T15:33:44;13.60;99.90
52159;DHT22;38145;53.182;6.284;2022-09-29T15:36:19;13.60;99.90
52159;DHT22;38145;53.182;6.284;2022-09-29T15:38:50;13.60;99.90
52159;DHT22;38145;53.182;6.284;2022-09-29T15:41:18;13.50;99.90
52159;DHT22;38145;53.182;6.284;2022-09-29T15:49:10;13.20;99.90
52159;DHT22;38145;53.182;6.284;2022-09-29T15:51:38;13.20;99.90
52159;DHT22;38145;53.182;6.284;2022-09-29T15:54:06;13.20;99.90
52159;DHT22;38145;53.182;6.284;2022-09-29T15:56:36;13.20;99.90
52159;DHT22;38145;53.182;6.284;2022-09-29T15:59:38;13.20;99.90
52159;DHT22;38145;53.182;6.284;2022-09-29T16:02:14;13.20;99.90
52159;DHT22;38145;53.182;6.284;2022-09-29T16:04:44;13.20;99.90
52159;DHT22;38145;53.182;6.284;2022-09-29T16:07:19;13.30;99.90
52159;DHT22;38145;53.182;6.284;2022-09-29T16:09:48;13.30;99.90
52159;DHT22;38145;53.182;6.284;2022-09-29T16:12:17;13.30;99.90
52159;DHT22;38145;53.182;6.284;2022-09-29T16:14:45;13.30;99.90
52159;DHT22;38145;53.182;6.284;2022-09-29T16:17:13;13.20;99.90
52159;DHT22;38145;53.182;6.284;2022-09-29T16:19:43;13.10;99.90
52159;DHT22;38145;53.182;6.284;2022-09-29T16:22:20;13.10;99.90
52159;DHT22;38145;53.182;6.284;2022-09-29T16:25:07;13.00;99.90
52159;DHT22;38145;53.182;6.284;2022-09-29T16:27:45;13.00;99.90
52159;DHT22;38145;53.182;6.284;2022-09-29T16:30:20;13.00;99.90
52159;DHT22;38145;53.182;6.284;2022-09-29T16:33:11;12.90;99.90
52159;DHT22;38145;53.182;6.284;2022-09-29T16:35:39;12.90;99.90
52159;DHT22;38145;53.182;6.284;2022-09-29T16:41:06;12.70;99.90
52159;DHT22;38145;53.182;6.284;2022-09-29T16:43:33;12.70;99.90
52159;DHT22;38145;53.182;6.284;2022-09-29T16:46:01;12.70;99.90
52159;DHT22;38145;53.182;6.284;2022-09-29T16:48:38;12.60;99.90
52159;DHT22;38145;53.182;6.284;2022-09-29T16:51:14;12.50;99.90
52159;DHT22;38145;53.182;6.284;2022-09-29T16:53:42;12.50;99.90
52159;DHT22;38145;53.182;6.284;2022-09-29T16:56:14;12.40;99.90
52159;DHT22;38145;53.182;6.284;2022-09-29T16:58:45;12.40;99.90
52159;DHT22;38145;53.182;6.284;2022-09-29T17:01:26;12.30;99.90
52159;DHT22;38145;53.182;6.284;2022-09-29T17:03:53;12.30;99.90
52159;DHT22;38145;53.182;6.284;2022-09-29T17:06:20;12.20;99.90
52159;DHT22;38145;53.182;6.284;2022-09-29T17:08:46;12.30;99.90
52159;DHT22;38145;53.182;6.284;2022-09-29T17:11:12;12.30;99.90
52159;DHT22;38145;53.182;6.284;2022-09-29T17:13:39;12.30;99.90
52159;DHT22;38145;53.182;6.284;2022-09-29T17:16:06;12.10;99.90
52159;DHT22;38145;53.182;6.284;2022-09-29T17:18:34;12.20;99.90
52159;DHT22;38145;53.182;6.284;2022-09-29T17:21:01;12.10;99.90
52159;DHT22;38145;53.182;6.284;2022-09-29T17:23:27;12.10;99.90
52159;DHT22;38145;53.182;6.284;2022-09-29T17:25:53;12.00;99.90
52159;DHT22;38145;53.182;6.284;2022-09-29T17:28:39;12.10;99.90
52159;DHT22;38145;53.182;6.284;2022-09-29T17:31:09;12.10;99.90
52159;DHT22;38145;53.182;6.284;2022-09-29T17:33:37;11.90;99.90
52159;DHT22;38145;53.182;6.284;2022-09-29T17:36:08;12.00;99.90
52159;DHT22;38145;53.182;6.284;2022-09-29T17:38:37;11.90;99.90
52159;DHT22;38145;53.182;6.284;2022-09-29T17:41:06;11.80;99.90
52159;DHT22;38145;53.182;6.284;2022-09-29T17:43:32;11.80;99.90
52159;DHT22;38145;53.182;6.284;2022-09-29T17:45:59;11.90;99.90
52159;DHT22;38145;53.182;6.284;2022-09-29T17:48:28;11.80;99.90
52159;DHT22;38145;53.182;6.284;2022-09-29T17:50:55;11.80;99.90
52159;DHT22;38145;53.182;6.284;2022-09-29T17:53:24;11.70;99.90
52159;DHT22;38145;53.182;6.284;2022-09-29T17:55:52;11.80;99.90
52159;DHT22;38145;53.182;6.284;2022-09-29T17:58:20;11.60;99.90
52159;DHT22;38145;53.182;6.284;2022-09-29T18:00:49;11.60;99.90